createdAt,value
2019-03-17T00:00:56.814Z,99455.85
2019-03-17T00:03:26.575Z,99457.19
2019-03-17T00:05:56.414Z,99450.25
2019-03-17T00:08:26.100Z,99445.34
2019-03-17T00:10:56.059Z,99447.31
2019-03-17T00:13:25.983Z,99435.01
2019-03-17T00:15:55.710Z,99441.52
2019-03-17T00:18:26.434Z,99441.43
2019-03-17T00:20:56.118Z,99426.55
2019-03-17T00:23:25.867Z,99426.55
2019-03-17T00:25:55.641Z,99428.75
2019-03-17T00:28:25.372Z,99434.96
2019-03-17T00:30:55.161Z,99427.87
2019-03-17T00:33:24.963Z,99424.98
2019-03-17T00:35:54.738Z,99429.77
2019-03-17T00:38:24.422Z,99424.89
2019-03-17T00:40:54.115Z,99421.20
2019-03-17T00:43:23.816Z,99421.97
2019-03-17T00:45:53.826Z,99426.97
2019-03-17T00:48:23.619Z,99416.44
2019-03-17T00:50:53.380Z,99413.55
2019-03-17T00:53:23.278Z,99403.55
2019-03-17T00:55:52.992Z,99405.17
2019-03-17T00:58:22.836Z,99405.17
2019-03-17T01:00:52.634Z,99413.42
2019-03-17T01:03:23.373Z,99403.27
2019-03-17T01:05:53.114Z,99405.07
2019-03-17T01:08:23.011Z,99404.17
2019-03-17T01:10:52.783Z,99396.10
2019-03-17T01:13:22.525Z,99400.48
2019-03-17T01:15:52.320Z,99388.77
2019-03-17T01:18:22.128Z,99395.17
2019-03-17T01:20:51.854Z,99389.09
2019-03-17T01:23:21.728Z,99393.51
2019-03-17T01:25:51.474Z,99391.20
2019-03-17T01:28:30.309Z,99385.13
2019-03-17T01:31:10.225Z,99385.13
2019-03-17T01:33:57.822Z,99379.05
2019-03-17T01:36:27.634Z,99376.98
2019-03-17T01:38:57.569Z,99377.96
2019-03-17T01:41:27.344Z,99369.43
2019-03-17T01:44:05.590Z,99367.37
2019-03-17T01:46:43.103Z,99352.77
2019-03-17T01:49:31.515Z,99351.20
2019-03-17T01:52:08.793Z,99355.55
2019-03-17T01:54:38.514Z,99355.55
2019-03-17T01:57:38.279Z,99341.12
2019-03-17T02:00:13.800Z,99341.12
2019-03-17T02:02:46.511Z,99338.73
2019-03-17T02:05:27.632Z,99324.77
2019-03-17T02:07:54.947Z,99330.81
2019-03-17T02:10:25.260Z,99331.17
2019-03-17T02:12:54.964Z,99325.72
2019-03-17T02:15:24.696Z,99318.45
2019-03-17T02:17:54.429Z,99310.75
2019-03-17T02:20:25.604Z,99318.38
2019-03-17T02:22:55.414Z,99313.93
2019-03-17T02:25:25.124Z,99312.92
2019-03-17T02:27:54.895Z,99311.08
2019-03-17T02:30:24.667Z,99307.82
2019-03-17T02:32:54.384Z,99302.55
2019-03-17T02:35:37.700Z,99299.51
2019-03-17T02:37:55.663Z,99291.41
2019-03-17T02:40:25.468Z,99290.77
2019-03-17T02:42:55.109Z,99290.77
2019-03-17T02:45:24.834Z,99286.31
2019-03-17T02:47:54.555Z,99280.24
2019-03-17T02:50:24.272Z,99278.41
2019-03-17T02:52:53.960Z,99273.16
2019-03-17T02:55:23.694Z,99272.73
2019-03-17T02:57:57.834Z,99266.88
2019-03-17T03:00:32.317Z,99263.40
2019-03-17T03:03:01.990Z,99256.14
2019-03-17T03:05:32.709Z,99258.12
2019-03-17T03:08:02.578Z,99257.69
2019-03-17T03:10:32.571Z,99256.68
2019-03-17T03:13:02.369Z,99255.05
2019-03-17T03:15:32.079Z,99259.06
2019-03-17T03:18:01.741Z,99246.74
2019-03-17T03:20:31.436Z,99246.09
2019-03-17T03:23:01.110Z,99236.02
2019-03-17T03:25:30.804Z,99237.20
2019-03-17T03:28:00.474Z,99239.01
2019-03-17T03:30:43.308Z,99229.26
2019-03-17T03:33:24.068Z,99233.88
2019-03-17T03:36:10.067Z,99224.16
2019-03-17T03:38:27.520Z,99235.22
2019-03-17T03:40:57.284Z,99232.77
2019-03-17T03:43:26.948Z,99225.28
2019-03-17T03:45:56.672Z,99220.48
2019-03-17T03:48:26.332Z,99229.58
2019-03-17T03:50:56.050Z,99218.23
2019-03-17T03:53:25.784Z,99212.39
2019-03-17T03:55:57.162Z,99209.91
2019-03-17T03:58:28.813Z,99212.81
2019-03-17T04:01:05.323Z,99198.72
2019-03-17T04:03:35.141Z,99191.29
2019-03-17T04:06:05.289Z,99195.98
2019-03-17T04:08:35.073Z,99195.26
2019-03-17T04:11:04.809Z,99192.42
2019-03-17T04:13:34.478Z,99189.92
2019-03-17T04:16:04.232Z,99184.16
2019-03-17T04:18:33.950Z,99183.30
2019-03-17T04:21:03.633Z,99170.59
2019-03-17T04:23:33.371Z,99166.67
2019-03-17T04:26:03.100Z,99175.53
2019-03-17T04:28:32.774Z,99171.39
2019-03-17T04:31:02.447Z,99179.08
2019-03-17T04:33:32.121Z,99172.10
2019-03-17T04:36:01.807Z,99167.97
2019-03-17T04:38:31.493Z,99181.16
2019-03-17T04:41:01.147Z,99170.34
2019-03-17T04:43:30.805Z,99168.28
2019-03-17T04:46:01.560Z,99166.86
2019-03-17T04:48:31.299Z,99161.36
2019-03-17T04:51:00.962Z,99169.27
2019-03-17T04:53:30.626Z,99161.38
2019-03-17T04:56:00.381Z,99162.40
2019-03-17T04:58:30.047Z,99167.52
2019-03-17T05:00:59.714Z,99169.19
2019-03-17T05:03:29.400Z,99169.59
2019-03-17T05:05:59.075Z,99162.08
2019-03-17T05:08:28.731Z,99169.98
2019-03-17T05:10:58.413Z,99169.96
2019-03-17T05:13:28.097Z,99167.31
2019-03-17T05:15:57.786Z,99159.50
2019-03-17T05:18:27.444Z,99159.09
2019-03-17T05:20:57.123Z,99150.97
2019-03-17T05:23:26.785Z,99162.73
2019-03-17T05:25:56.580Z,99150.56
2019-03-17T05:28:26.416Z,99150.70
2019-03-17T05:30:56.141Z,99154.77
2019-03-17T05:33:25.812Z,99152.45
2019-03-17T05:35:55.527Z,99147.55
2019-03-17T05:38:25.262Z,99147.94
2019-03-17T05:40:54.973Z,99148.14
2019-03-17T05:43:24.822Z,99147.52
2019-03-17T05:45:54.546Z,99142.61
2019-03-17T05:48:24.508Z,99142.02
2019-03-17T05:50:54.192Z,99136.12
2019-03-17T05:53:23.861Z,99135.52
2019-03-17T05:55:53.570Z,99127.39
2019-03-17T05:58:23.248Z,99133.52
2019-03-17T06:00:52.931Z,99128.67
2019-03-17T06:03:22.591Z,99133.14
2019-03-17T06:05:52.261Z,99134.56
2019-03-17T06:08:21.912Z,99132.31
2019-03-17T06:10:51.578Z,99135.79
2019-03-17T06:13:21.232Z,99126.42
2019-03-17T06:15:50.983Z,99118.93
2019-03-17T06:18:20.655Z,99121.55
2019-03-17T06:20:50.332Z,99119.89
2019-03-17T06:23:20.038Z,99127.83
2019-03-17T06:25:49.957Z,99130.05
2019-03-17T06:28:21.607Z,99132.09
2019-03-17T06:30:51.176Z,99138.37
2019-03-17T06:33:20.857Z,99136.56
2019-03-17T06:35:50.524Z,99140.06
2019-03-17T06:38:20.195Z,99136.20
2019-03-17T06:40:49.876Z,99138.87
2019-03-17T06:43:19.585Z,99149.84
2019-03-17T06:45:49.296Z,99149.66
2019-03-17T06:48:18.992Z,99146.34
2019-03-17T06:50:48.636Z,99143.05
2019-03-17T06:53:18.320Z,99143.17
2019-03-17T06:55:47.978Z,99140.37
2019-03-17T06:58:17.728Z,99144.16
2019-03-17T07:00:47.452Z,99140.05
2019-03-17T07:03:17.283Z,99133.13
2019-03-17T07:05:47.018Z,99136.19
2019-03-17T07:08:16.781Z,99128.77
2019-03-17T07:10:46.468Z,99128.58
2019-03-17T07:13:16.157Z,99131.70
2019-03-17T07:15:46.005Z,99130.94
2019-03-17T07:18:15.679Z,99127.76
2019-03-17T07:20:45.337Z,99130.34
2019-03-17T07:23:15.038Z,99126.48
2019-03-17T07:25:44.688Z,99132.53
2019-03-17T07:28:14.372Z,99137.37
2019-03-17T07:30:44.298Z,99146.59
2019-03-17T07:33:13.997Z,99146.03
2019-03-17T07:35:46.256Z,99147.94
2019-03-17T07:38:15.093Z,99140.39
2019-03-17T07:40:44.742Z,99144.25
2019-03-17T07:43:14.422Z,99142.44
2019-03-17T07:45:44.161Z,99146.75
2019-03-17T07:48:13.957Z,99149.66
2019-03-17T07:50:43.700Z,99154.22
2019-03-17T07:53:13.443Z,99159.55
2019-03-17T07:55:43.099Z,99157.96
2019-03-17T07:58:12.767Z,99153.88
2019-03-17T08:00:42.442Z,99162.84
2019-03-17T08:03:12.152Z,99151.38
2019-03-17T08:05:41.825Z,99147.10
2019-03-17T08:08:11.492Z,99151.76
2019-03-17T08:10:41.153Z,99159.92
2019-03-17T08:13:10.896Z,99166.19
2019-03-17T08:15:40.584Z,99166.19
2019-03-17T08:18:10.293Z,99155.40
2019-03-17T08:20:39.966Z,99152.98
2019-03-17T08:23:09.650Z,99154.13
2019-03-17T08:25:39.632Z,99150.55
2019-03-17T08:28:09.506Z,99137.75
2019-03-17T08:30:52.077Z,99150.09
2019-03-17T08:33:10.793Z,99160.93
2019-03-17T08:35:40.451Z,99168.73
2019-03-17T08:38:21.361Z,99164.53
2019-03-17T08:40:41.635Z,99160.70
2019-03-17T08:43:11.315Z,99160.88
2019-03-17T08:45:41.095Z,99163.78
2019-03-17T08:48:10.795Z,99164.52
2019-03-17T08:50:40.533Z,99172.22
2019-03-17T08:53:10.201Z,99175.41
2019-03-17T08:55:39.869Z,99179.19
2019-03-17T08:58:09.553Z,99179.56
2019-03-17T09:00:39.253Z,99193.27
2019-03-17T09:03:08.930Z,99189.70
2019-03-17T09:05:38.637Z,99187.52
2019-03-17T09:08:08.399Z,99192.78
2019-03-17T09:10:38.080Z,99196.20
2019-03-17T09:13:07.830Z,99200.82
2019-03-17T09:15:37.566Z,99207.97
2019-03-17T09:18:07.385Z,99195.48
2019-03-17T09:20:37.089Z,99188.68
2019-03-17T09:23:06.779Z,99193.59
2019-03-17T09:25:36.458Z,99192.61
2019-03-17T09:28:06.151Z,99194.04
2019-03-17T09:30:35.859Z,99201.19
2019-03-17T09:33:05.528Z,99191.83
2019-03-17T09:35:35.186Z,99199.67
2019-03-17T09:38:04.926Z,99195.74
2019-03-17T09:40:34.608Z,99196.11
2019-03-17T09:43:04.381Z,99200.66
2019-03-17T09:45:35.209Z,99196.98
2019-03-17T09:48:04.916Z,99204.62
2019-03-17T09:50:34.624Z,99207.67
2019-03-17T09:53:04.619Z,99202.55
2019-03-17T09:55:34.318Z,99193.20
2019-03-17T09:58:04.030Z,99189.18
2019-03-17T10:00:33.763Z,99188.34
2019-03-17T10:03:03.506Z,99192.68
2019-03-17T10:05:33.248Z,99204.58
2019-03-17T10:08:02.954Z,99199.19
2019-03-17T10:10:32.610Z,99192.30
2019-03-17T10:13:02.306Z,99205.77
2019-03-17T10:15:32.309Z,99203.98
2019-03-17T10:18:02.014Z,99210.85
2019-03-17T10:20:31.846Z,99213.84
2019-03-17T10:23:01.567Z,99216.98
2019-03-17T10:25:31.467Z,99234.42
2019-03-17T10:28:01.202Z,99232.05
2019-03-17T10:30:31.172Z,99260.49
2019-03-17T10:33:00.877Z,99287.84
2019-03-17T10:35:30.904Z,99316.01
2019-03-17T10:38:00.601Z,99335.09
2019-03-17T10:40:30.997Z,99333.55
2019-03-17T10:43:00.678Z,99342.61
2019-03-17T10:45:30.702Z,99349.72
2019-03-17T10:48:50.142Z,99336.82
2019-03-17T10:51:20.474Z,99341.50
2019-03-17T10:53:51.865Z,99337.39
2019-03-17T10:56:21.551Z,99343.17
2019-03-17T10:58:52.245Z,99340.17
2019-03-17T11:01:22.289Z,99343.22
2019-03-17T11:03:52.647Z,99337.48
2019-03-17T11:06:23.362Z,99341.54
2019-03-17T11:08:53.068Z,99344.33
2019-03-17T11:11:22.769Z,99350.59
2019-03-17T11:13:52.809Z,99346.26
2019-03-17T11:16:22.494Z,99344.53
2019-03-17T11:18:52.323Z,99354.43
2019-03-17T11:21:22.016Z,99358.64
2019-03-17T11:23:52.119Z,99356.81
2019-03-17T11:26:21.810Z,99375.11
2019-03-17T11:28:53.416Z,99383.23
2019-03-17T11:31:23.592Z,99380.83
2019-03-17T11:33:53.748Z,99394.25
2019-03-17T11:36:23.919Z,99397.30
2019-03-17T11:38:53.700Z,99401.56
2019-03-17T11:41:25.367Z,99404.42
2019-03-17T11:43:55.221Z,99412.56
2019-03-17T11:46:25.240Z,99411.13
2019-03-17T11:48:55.029Z,99397.48
2019-03-17T11:51:24.960Z,99406.86
2019-03-17T11:53:54.769Z,99406.27
2019-03-17T11:56:24.563Z,99414.81
2019-03-17T11:58:56.180Z,99421.94
2019-03-17T12:01:26.058Z,99435.56
2019-03-17T12:03:55.825Z,99437.03
2019-03-17T12:06:25.707Z,99428.50
2019-03-17T12:08:55.406Z,99435.63
2019-03-17T12:11:25.191Z,99424.23
2019-03-17T12:13:55.022Z,99425.64
2019-03-17T12:16:24.807Z,99436.98
2019-03-17T12:18:54.921Z,99435.55
2019-03-17T12:21:25.430Z,99437.20
2019-03-17T12:23:55.460Z,99433.31
2019-03-17T12:26:26.559Z,99436.16
2019-03-17T12:28:56.920Z,99439.02
2019-03-17T12:31:27.237Z,99439.84
2019-03-17T14:03:43.235Z,99494.77
2019-03-17T14:06:13.114Z,99491.32
2019-03-17T14:11:51.858Z,99509.80
2019-03-17T14:14:20.731Z,99523.84
2019-03-17T14:16:50.710Z,99527.92
2019-03-17T14:19:20.595Z,99524.67
2019-03-17T14:21:50.445Z,99521.83
2019-03-17T14:24:20.398Z,99518.14
2019-03-17T14:26:50.149Z,99533.02
2019-03-17T14:32:00.385Z,99540.69
2019-03-17T14:34:30.123Z,99545.00
2019-03-17T14:36:59.848Z,99557.19
2019-03-17T14:39:29.522Z,99573.05
2019-03-17T14:41:59.413Z,99589.98
2019-03-17T14:44:29.212Z,99588.29
2019-03-17T14:46:58.945Z,99578.27
2019-03-17T14:49:28.710Z,99570.70
2019-03-17T14:51:58.707Z,99573.55
2019-03-17T14:54:29.648Z,99588.83
2019-03-17T14:56:59.365Z,99582.94
2019-03-17T14:59:29.095Z,99583.53
2019-03-17T15:01:58.920Z,99587.41
2019-03-17T15:04:28.665Z,99587.02
2019-03-17T15:07:07.510Z,99588.25
2019-03-17T15:09:37.180Z,99591.09
2019-03-17T15:12:06.847Z,99594.97
2019-03-17T15:14:36.517Z,99591.48
2019-03-17T15:17:06.293Z,99589.67
2019-03-17T15:19:35.996Z,99586.19
2019-03-17T15:22:05.829Z,99592.71
2019-03-17T15:24:35.670Z,99593.30
2019-03-17T15:27:05.411Z,99600.02
2019-03-17T15:29:35.081Z,99607.78
2019-03-17T15:32:04.852Z,99583.95
2019-03-17T15:34:34.629Z,99579.05
2019-03-17T17:39:39.706Z,99829.14
2019-03-17T17:42:10.324Z,99848.02
2019-03-17T17:44:40.248Z,99856.81
2019-03-17T17:47:10.146Z,99858.69
2019-03-17T17:49:39.993Z,99857.92
2019-03-17T17:52:09.808Z,99852.73
2019-03-17T17:57:45.351Z,99830.02
2019-03-17T18:18:40.562Z,99864.91
2019-03-17T18:21:10.245Z,99874.52
2019-03-17T18:23:39.966Z,99882.20
2019-03-17T18:26:09.745Z,99884.08
2019-03-17T18:28:39.450Z,99891.20
2019-03-17T18:31:09.332Z,99900.58
2019-03-17T18:33:39.064Z,99909.84
2019-03-17T18:36:08.914Z,99921.09
2019-03-17T18:53:20.637Z,99940.94
2019-03-17T18:55:50.291Z,99948.56
2019-03-17T18:58:19.989Z,99957.63
2019-03-17T19:00:49.688Z,99956.48
2019-03-17T19:03:19.407Z,99962.77
2019-03-17T19:05:49.121Z,99961.92
2019-03-17T19:08:18.811Z,99968.59
2019-03-17T19:10:48.470Z,99976.92
2019-03-17T19:13:18.252Z,99972.62
2019-03-17T19:15:48.066Z,99973.25
2019-03-17T19:18:18.559Z,99983.79
2019-03-17T19:20:48.319Z,99980.25
2019-03-17T19:23:19.156Z,99981.97
2019-03-17T19:25:48.995Z,99982.05
2019-03-17T19:28:19.826Z,99979.32
2019-03-17T19:30:49.654Z,99972.46
2019-03-17T19:33:20.390Z,99984.06
2019-03-17T19:35:50.836Z,99986.25
2019-03-17T19:38:21.491Z,99986.51
2019-03-17T19:40:51.257Z,99984.32
2019-03-17T19:43:21.136Z,99994.75
2019-03-17T19:45:50.998Z,100002.70
2019-03-17T19:48:20.909Z,100003.48
2019-03-17T19:53:27.800Z,99995.45
2019-03-17T19:55:57.482Z,100005.88
2019-03-17T19:58:27.335Z,100004.72
2019-03-17T20:00:57.023Z,100000.87
2019-03-17T20:03:26.889Z,100000.59
2019-03-17T20:06:02.205Z,100006.34
2019-03-17T20:08:28.091Z,100006.30
2019-03-17T20:10:57.737Z,100010.64
2019-03-17T20:13:27.443Z,100007.30
2019-03-17T20:15:57.149Z,100007.81
2019-03-17T20:18:26.923Z,100014.62
2019-03-17T20:20:56.774Z,100020.60
2019-03-17T20:23:26.536Z,100017.81
2019-03-17T20:25:56.286Z,100024.08
2019-03-17T20:28:26.856Z,100028.20
2019-03-17T20:30:56.663Z,100032.28
2019-03-17T20:33:28.009Z,100033.62
2019-03-17T20:35:57.845Z,100035.79
2019-03-17T20:38:27.912Z,100041.34
2019-03-17T20:40:57.659Z,100036.36
2019-03-17T20:43:35.001Z,100042.72
2019-03-17T20:45:58.816Z,100043.00
2019-03-17T20:48:29.486Z,100054.63
2019-03-17T20:51:00.061Z,100052.43
2019-03-17T20:53:30.157Z,100062.66
2019-03-17T20:56:01.007Z,100063.23
2019-03-17T20:58:30.689Z,100070.69
2019-03-17T21:01:00.517Z,100071.86
2019-03-17T21:03:30.292Z,100069.44
2019-03-17T21:06:00.071Z,100070.09
2019-03-17T21:08:29.828Z,100070.98
2019-03-17T21:10:59.531Z,100072.72
2019-03-17T21:13:29.580Z,100074.45
2019-03-17T21:15:59.274Z,100080.56
2019-03-17T21:18:28.958Z,100079.25
2019-03-17T21:20:58.653Z,100091.08
2019-03-17T21:23:28.444Z,100086.95
2019-03-17T21:25:58.257Z,100088.33
2019-03-17T21:28:27.960Z,100095.20
2019-03-17T21:30:58.609Z,100091.08
2019-03-17T21:33:28.419Z,100091.08
2019-03-17T21:35:58.097Z,100096.27
2019-03-17T21:38:27.791Z,100107.00
2019-03-17T21:41:07.077Z,100104.24
2019-03-17T21:43:28.987Z,100101.45
2019-03-17T21:45:58.692Z,100108.91
2019-03-17T21:48:28.461Z,100114.66
2019-03-17T21:50:59.232Z,100113.23
2019-03-17T21:53:28.923Z,100121.70
2019-03-17T21:55:59.431Z,100119.98
2019-03-17T21:58:29.221Z,100125.13
2019-03-17T22:00:58.987Z,100121.52
2019-03-17T22:03:28.867Z,100124.32
2019-03-17T22:05:58.639Z,100116.06
2019-03-17T22:08:28.479Z,100118.34
2019-03-17T22:10:58.196Z,100125.02
2019-03-17T22:13:27.899Z,100126.19
2019-03-17T22:15:57.706Z,100128.42
2019-03-17T22:18:27.429Z,100122.39
2019-03-17T22:20:57.131Z,100121.09
2019-03-17T22:23:26.848Z,100123.91
2019-03-17T22:25:56.549Z,100131.08
2019-03-17T22:28:26.361Z,100135.28
2019-03-17T22:30:56.197Z,100139.98
2019-03-17T22:33:25.893Z,100147.64
2019-03-17T22:35:55.691Z,100150.61
2019-03-17T22:38:25.411Z,100154.70
2019-03-17T22:40:55.143Z,100161.30
2019-03-17T22:43:24.940Z,100163.45
2019-03-17T22:45:54.710Z,100166.48
2019-03-17T22:48:24.480Z,100171.95
2019-03-17T22:50:54.223Z,100164.53
2019-03-17T22:53:23.973Z,100166.48
2019-03-17T22:55:53.685Z,100174.30
2019-03-17T22:58:23.492Z,100167.45
2019-03-17T23:00:53.483Z,100175.47
2019-03-17T23:03:23.330Z,100179.39
2019-03-17T23:05:53.048Z,100174.13
2019-03-17T23:08:22.981Z,100178.27
2019-03-17T23:10:52.858Z,100173.28
2019-03-17T23:13:22.626Z,100180.41
2019-03-17T23:15:52.401Z,100178.95
2019-03-17T23:18:22.114Z,100175.87
2019-03-17T23:20:51.921Z,100172.80
2019-03-17T23:23:21.678Z,100161.58
2019-03-17T23:25:51.475Z,100162.67
2019-03-17T23:28:21.254Z,100162.43
2019-03-17T23:30:51.174Z,100158.05
2019-03-17T23:33:20.919Z,100167.94
2019-03-17T23:35:50.614Z,100153.03
2019-03-17T23:38:20.330Z,100154.98
2019-03-17T23:40:50.103Z,100140.93
2019-03-17T23:43:19.852Z,100153.36
2019-03-17T23:45:49.557Z,100149.55
2019-03-17T23:48:19.344Z,100157.56
2019-03-17T23:50:49.255Z,100155.45
2019-03-17T23:53:18.963Z,100155.77
2019-03-17T23:55:48.710Z,100161.31
2019-03-17T23:58:18.526Z,100153.04
